sensor_id;sensor_type;location;lat;lon;timestamp;P1;durP1;ratioP1;P2;durP2;ratioP2
21786;SDS011;11055;50.870;4.316;2024-01-15T00:01:33;32.03;;;16.52;;
21786;SDS011;11055;50.870;4.316;2024-01-15T00:03:59;31.13;;;16.65;;
21786;SDS011;11055;50.870;4.316;2024-01-15T00:06:25;24.15;;;14.48;;
21786;SDS011;11055;50.870;4.316;2024-01-15T00:08:52;27.88;;;15.32;;
21786;SDS011;11055;50.870;4.316;2024-01-15T00:11:17;30.33;;;15.30;;
21786;SDS011;11055;50.870;4.316;2024-01-15T00:13:43;27.75;;;14.63;;
21786;SDS011;11055;50.870;4.316;2024-01-15T00:16:09;23.88;;;13.90;;
21786;SDS011;11055;50.870;4.316;2024-01-15T00:18:35;28.95;;;14.15;;
21786;SDS011;11055;50.870;4.316;2024-01-15T00:21:01;23.65;;;13.80;;
21786;SDS011;11055;50.870;4.316;2024-01-15T00:23:26;23.13;;;12.93;;
21786;SDS011;11055;50.870;4.316;2024-01-15T00:25:52;23.25;;;13.05;;
21786;SDS011;11055;50.870;4.316;2024-01-15T00:28:18;25.25;;;12.32;;
21786;SDS011;11055;50.870;4.316;2024-01-15T00:30:43;22.83;;;12.75;;
21786;SDS011;11055;50.870;4.316;2024-01-15T00:33:09;20.15;;;11.07;;
21786;SDS011;11055;50.870;4.316;2024-01-15T00:35:37;24.17;;;12.15;;
21786;SDS011;11055;50.870;4.316;2024-01-15T00:38:03;20.80;;;10.82;;
21786;SDS011;11055;50.870;4.316;2024-01-15T00:40:28;22.33;;;11.05;;
21786;SDS011;11055;50.870;4.316;2024-01-15T00:42:54;20.55;;;10.30;;
21786;SDS011;11055;50.870;4.316;2024-01-15T00:45:19;17.85;;;9.85;;
21786;SDS011;11055;50.870;4.316;2024-01-15T00:47:45;18.15;;;10.18;;
21786;SDS011;11055;50.870;4.316;2024-01-15T00:50:11;15.95;;;9.63;;
21786;SDS011;11055;50.870;4.316;2024-01-15T00:52:36;13.63;;;8.48;;
21786;SDS011;11055;50.870;4.316;2024-01-15T00:55:02;15.45;;;8.88;;
21786;SDS011;11055;50.870;4.316;2024-01-15T00:57:28;14.63;;;8.65;;
21786;SDS011;11055;50.870;4.316;2024-01-15T00:59:54;15.18;;;8.55;;
21786;SDS011;11055;50.870;4.316;2024-01-15T01:02:19;14.90;;;7.85;;
21786;SDS011;11055;50.870;4.316;2024-01-15T01:04:45;16.83;;;8.50;;
21786;SDS011;11055;50.870;4.316;2024-01-15T01:07:11;12.93;;;7.80;;
21786;SDS011;11055;50.870;4.316;2024-01-15T01:09:36;14.40;;;8.73;;
21786;SDS011;11055;50.870;4.316;2024-01-15T01:12:02;12.10;;;7.50;;
21786;SDS011;11055;50.870;4.316;2024-01-15T01:14:28;12.88;;;7.32;;
21786;SDS011;11055;50.870;4.316;2024-01-15T01:16:53;10.45;;;6.68;;
21786;SDS011;11055;50.870;4.316;2024-01-15T01:19:19;10.02;;;6.70;;
21786;SDS011;11055;50.870;4.316;2024-01-15T01:21:45;7.75;;;6.28;;
21786;SDS011;11055;50.870;4.316;2024-01-15T01:24:10;10.23;;;6.22;;
21786;SDS011;11055;50.870;4.316;2024-01-15T01:26:36;8.50;;;6.18;;
21786;SDS011;11055;50.870;4.316;2024-01-15T01:29:01;7.68;;;5.28;;
21786;SDS011;11055;50.870;4.316;2024-01-15T01:31:27;7.78;;;5.22;;
21786;SDS011;11055;50.870;4.316;2024-01-15T01:33:53;7.32;;;5.72;;
21786;SDS011;11055;50.870;4.316;2024-01-15T01:36:18;8.52;;;5.03;;
21786;SDS011;11055;50.870;4.316;2024-01-15T01:38:44;8.35;;;5.15;;
21786;SDS011;11055;50.870;4.316;2024-01-15T01:41:09;5.90;;;4.40;;
21786;SDS011;11055;50.870;4.316;2024-01-15T01:43:35;6.53;;;4.50;;
21786;SDS011;11055;50.870;4.316;2024-01-15T01:46:01;8.85;;;4.78;;
21786;SDS011;11055;50.870;4.316;2024-01-15T01:48:28;6.85;;;4.85;;
21786;SDS011;11055;50.870;4.316;2024-01-15T01:50:56;7.25;;;4.75;;
21786;SDS011;11055;50.870;4.316;2024-01-15T01:53:37;6.72;;;4.45;;
21786;SDS011;11055;50.870;4.316;2024-01-15T01:56:03;6.25;;;4.55;;
21786;SDS011;11055;50.870;4.316;2024-01-15T01:58:30;8.10;;;4.97;;
21786;SDS011;11055;50.870;4.316;2024-01-15T02:00:56;5.85;;;3.97;;
21786;SDS011;11055;50.870;4.316;2024-01-15T02:03:23;7.28;;;4.18;;
21786;SDS011;11055;50.870;4.316;2024-01-15T02:05:50;5.88;;;3.92;;
21786;SDS011;11055;50.870;4.316;2024-01-15T02:08:18;5.55;;;4.47;;
21786;SDS011;11055;50.870;4.316;2024-01-15T02:10:43;8.85;;;3.92;;
21786;SDS011;11055;50.870;4.316;2024-01-15T02:13:09;4.93;;;3.55;;
21786;SDS011;11055;50.870;4.316;2024-01-15T02:15:35;4.22;;;3.30;;
21786;SDS011;11055;50.870;4.316;2024-01-15T02:18:01;4.95;;;3.45;;
21786;SDS011;11055;50.870;4.316;2024-01-15T02:20:32;8.00;;;3.70;;
21786;SDS011;11055;50.870;4.316;2024-01-15T02:23:08;5.28;;;3.40;;
21786;SDS011;11055;50.870;4.316;2024-01-15T02:25:37;5.95;;;3.33;;
21786;SDS011;11055;50.870;4.316;2024-01-15T02:28:05;7.70;;;3.90;;
21786;SDS011;11055;50.870;4.316;2024-01-15T02:30:33;5.97;;;3.63;;
21786;SDS011;11055;50.870;4.316;2024-01-15T02:33:03;4.03;;;3.08;;
21786;SDS011;11055;50.870;4.316;2024-01-15T02:35:28;4.15;;;2.72;;
21786;SDS011;11055;50.870;4.316;2024-01-15T02:37:54;6.65;;;3.50;;
21786;SDS011;11055;50.870;4.316;2024-01-15T02:40:19;3.78;;;2.80;;
21786;SDS011;11055;50.870;4.316;2024-01-15T02:42:45;5.00;;;3.45;;
21786;SDS011;11055;50.870;4.316;2024-01-15T02:45:11;5.70;;;3.40;;
21786;SDS011;11055;50.870;4.316;2024-01-15T02:47:36;5.57;;;3.47;;
21786;SDS011;11055;50.870;4.316;2024-01-15T02:50:02;5.47;;;3.70;;
21786;SDS011;11055;50.870;4.316;2024-01-15T02:52:28;4.95;;;4.10;;
21786;SDS011;11055;50.870;4.316;2024-01-15T02:54:54;6.43;;;4.03;;
21786;SDS011;11055;50.870;4.316;2024-01-15T02:57:19;5.03;;;3.88;;
21786;SDS011;11055;50.870;4.316;2024-01-15T02:59:45;9.95;;;4.22;;
21786;SDS011;11055;50.870;4.316;2024-01-15T03:02:11;7.28;;;4.40;;
21786;SDS011;11055;50.870;4.316;2024-01-15T03:04:36;10.00;;;5.43;;
21786;SDS011;11055;50.870;4.316;2024-01-15T03:07:02;9.52;;;5.68;;
21786;SDS011;11055;50.870;4.316;2024-01-15T03:09:27;10.35;;;6.00;;
21786;SDS011;11055;50.870;4.316;2024-01-15T03:11:53;8.15;;;5.78;;
21786;SDS011;11055;50.870;4.316;2024-01-15T03:14:19;11.02;;;6.28;;
21786;SDS011;11055;50.870;4.316;2024-01-15T03:16:45;9.98;;;6.10;;
21786;SDS011;11055;50.870;4.316;2024-01-15T03:19:11;8.65;;;6.25;;
21786;SDS011;11055;50.870;4.316;2024-01-15T03:21:36;11.82;;;7.07;;
21786;SDS011;11055;50.870;4.316;2024-01-15T03:24:02;11.18;;;6.93;;
21786;SDS011;11055;50.870;4.316;2024-01-15T03:26:28;12.43;;;7.57;;
21786;SDS011;11055;50.870;4.316;2024-01-15T03:28:53;11.05;;;7.47;;
21786;SDS011;11055;50.870;4.316;2024-01-15T03:31:19;13.63;;;9.18;;
21786;SDS011;11055;50.870;4.316;2024-01-15T03:33:45;12.18;;;8.10;;
21786;SDS011;11055;50.870;4.316;2024-01-15T03:36:10;14.75;;;8.65;;
21786;SDS011;11055;50.870;4.316;2024-01-15T03:38:39;14.57;;;8.85;;
21786;SDS011;11055;50.870;4.316;2024-01-15T03:41:06;15.13;;;9.63;;
21786;SDS011;11055;50.870;4.316;2024-01-15T03:43:32;12.80;;;8.80;;
21786;SDS011;11055;50.870;4.316;2024-01-15T03:45:57;14.00;;;8.57;;
21786;SDS011;11055;50.870;4.316;2024-01-15T03:48:23;13.15;;;9.52;;
21786;SDS011;11055;50.870;4.316;2024-01-15T03:50:48;13.23;;;9.32;;
21786;SDS011;11055;50.870;4.316;2024-01-15T03:53:14;13.93;;;9.88;;
21786;SDS011;11055;50.870;4.316;2024-01-15T03:55:40;14.88;;;9.55;;
21786;SDS011;11055;50.870;4.316;2024-01-15T03:58:05;16.95;;;9.70;;
21786;SDS011;11055;50.870;4.316;2024-01-15T04:00:31;16.98;;;10.45;;
21786;SDS011;11055;50.870;4.316;2024-01-15T04:02:57;17.05;;;10.35;;
21786;SDS011;11055;50.870;4.316;2024-01-15T04:05:22;17.95;;;10.25;;
21786;SDS011;11055;50.870;4.316;2024-01-15T04:07:48;24.25;;;16.08;;
21786;SDS011;11055;50.870;4.316;2024-01-15T04:10:13;19.45;;;12.00;;
21786;SDS011;11055;50.870;4.316;2024-01-15T04:12:39;19.10;;;12.80;;
21786;SDS011;11055;50.870;4.316;2024-01-15T04:15:05;25.67;;;15.40;;
21786;SDS011;11055;50.870;4.316;2024-01-15T04:17:31;21.98;;;13.75;;
21786;SDS011;11055;50.870;4.316;2024-01-15T04:19:56;21.10;;;12.55;;
21786;SDS011;11055;50.870;4.316;2024-01-15T04:22:22;18.42;;;12.05;;
21786;SDS011;11055;50.870;4.316;2024-01-15T04:24:48;20.10;;;11.95;;
21786;SDS011;11055;50.870;4.316;2024-01-15T04:27:14;20.13;;;12.63;;
21786;SDS011;11055;50.870;4.316;2024-01-15T04:29:39;19.35;;;11.02;;
21786;SDS011;11055;50.870;4.316;2024-01-15T04:32:05;19.40;;;10.90;;
21786;SDS011;11055;50.870;4.316;2024-01-15T04:34:31;18.02;;;10.15;;
21786;SDS011;11055;50.870;4.316;2024-01-15T04:36:56;15.50;;;10.20;;
21786;SDS011;11055;50.870;4.316;2024-01-15T04:39:22;14.13;;;10.15;;
21786;SDS011;11055;50.870;4.316;2024-01-15T04:41:48;15.80;;;9.52;;
21786;SDS011;11055;50.870;4.316;2024-01-15T04:44:13;12.65;;;8.35;;
21786;SDS011;11055;50.870;4.316;2024-01-15T04:46:39;12.70;;;7.85;;
21786;SDS011;11055;50.870;4.316;2024-01-15T04:49:05;14.02;;;7.13;;
21786;SDS011;11055;50.870;4.316;2024-01-15T04:51:30;11.77;;;7.00;;
21786;SDS011;11055;50.870;4.316;2024-01-15T04:53:56;13.32;;;6.63;;
21786;SDS011;11055;50.870;4.316;2024-01-15T04:56:21;9.60;;;6.30;;
21786;SDS011;11055;50.870;4.316;2024-01-15T04:58:47;11.75;;;5.35;;
21786;SDS011;11055;50.870;4.316;2024-01-15T05:01:13;8.15;;;4.50;;
21786;SDS011;11055;50.870;4.316;2024-01-15T05:03:41;7.93;;;4.50;;
21786;SDS011;11055;50.870;4.316;2024-01-15T05:06:06;8.80;;;4.28;;
21786;SDS011;11055;50.870;4.316;2024-01-15T05:08:32;8.35;;;3.95;;
21786;SDS011;11055;50.870;4.316;2024-01-15T05:10:58;5.88;;;3.30;;
21786;SDS011;11055;50.870;4.316;2024-01-15T05:13:23;5.03;;;3.22;;
21786;SDS011;11055;50.870;4.316;2024-01-15T05:15:49;6.80;;;2.92;;
21786;SDS011;11055;50.870;4.316;2024-01-15T05:18:15;4.10;;;2.67;;
21786;SDS011;11055;50.870;4.316;2024-01-15T05:20:41;5.90;;;2.65;;
21786;SDS011;11055;50.870;4.316;2024-01-15T05:23:07;3.72;;;2.42;;
21786;SDS011;11055;50.870;4.316;2024-01-15T05:25:33;5.38;;;2.67;;
21786;SDS011;11055;50.870;4.316;2024-01-15T05:27:58;8.07;;;3.05;;
21786;SDS011;11055;50.870;4.316;2024-01-15T05:30:24;6.13;;;2.88;;
21786;SDS011;11055;50.870;4.316;2024-01-15T05:32:50;6.55;;;2.53;;
21786;SDS011;11055;50.870;4.316;2024-01-15T05:35:16;4.47;;;2.50;;
21786;SDS011;11055;50.870;4.316;2024-01-15T05:37:42;6.03;;;2.08;;
21786;SDS011;11055;50.870;4.316;2024-01-15T05:40:10;5.82;;;2.22;;
21786;SDS011;11055;50.870;4.316;2024-01-15T05:42:37;7.97;;;2.00;;
21786;SDS011;11055;50.870;4.316;2024-01-15T05:45:03;3.97;;;2.00;;
21786;SDS011;11055;50.870;4.316;2024-01-15T05:47:29;3.40;;;1.70;;
21786;SDS011;11055;50.870;4.316;2024-01-15T05:49:56;4.45;;;1.80;;
21786;SDS011;11055;50.870;4.316;2024-01-15T05:52:22;3.92;;;1.48;;
21786;SDS011;11055;50.870;4.316;2024-01-15T05:54:48;6.25;;;1.70;;
21786;SDS011;11055;50.870;4.316;2024-01-15T05:57:14;2.92;;;1.20;;
21786;SDS011;11055;50.870;4.316;2024-01-15T05:59:40;2.80;;;1.20;;
21786;SDS011;11055;50.870;4.316;2024-01-15T06:02:05;3.92;;;1.27;;
21786;SDS011;11055;50.870;4.316;2024-01-15T06:04:31;4.50;;;1.70;;
21786;SDS011;11055;50.870;4.316;2024-01-15T06:06:56;3.10;;;1.10;;
21786;SDS011;11055;50.870;4.316;2024-01-15T06:09:22;2.75;;;1.20;;
21786;SDS011;11055;50.870;4.316;2024-01-15T06:11:48;2.08;;;1.17;;
21786;SDS011;11055;50.870;4.316;2024-01-15T06:14:13;3.97;;;1.63;;
21786;SDS011;11055;50.870;4.316;2024-01-15T06:16:39;1.40;;;1.00;;
21786;SDS011;11055;50.870;4.316;2024-01-15T06:19:05;4.65;;;1.00;;
21786;SDS011;11055;50.870;4.316;2024-01-15T06:21:30;5.32;;;1.00;;
21786;SDS011;11055;50.870;4.316;2024-01-15T06:23:56;3.30;;;1.40;;
21786;SDS011;11055;50.870;4.316;2024-01-15T06:26:22;3.35;;;1.40;;
21786;SDS011;11055;50.870;4.316;2024-01-15T06:28:48;5.25;;;1.60;;
21786;SDS011;11055;50.870;4.316;2024-01-15T06:31:14;7.22;;;1.70;;
21786;SDS011;11055;50.870;4.316;2024-01-15T06:33:39;4.00;;;1.77;;
21786;SDS011;11055;50.870;4.316;2024-01-15T06:36:05;7.18;;;2.40;;
21786;SDS011;11055;50.870;4.316;2024-01-15T06:38:31;4.32;;;2.13;;
21786;SDS011;11055;50.870;4.316;2024-01-15T06:40:57;6.03;;;2.17;;
21786;SDS011;11055;50.870;4.316;2024-01-15T06:43:23;5.95;;;2.08;;
21786;SDS011;11055;50.870;4.316;2024-01-15T06:45:48;4.75;;;2.35;;
21786;SDS011;11055;50.870;4.316;2024-01-15T06:48:14;7.75;;;2.58;;
21786;SDS011;11055;50.870;4.316;2024-01-15T06:50:41;7.60;;;2.10;;
21786;SDS011;11055;50.870;4.316;2024-01-15T06:53:07;3.05;;;1.90;;
21786;SDS011;11055;50.870;4.316;2024-01-15T06:55:33;7.00;;;2.25;;
21786;SDS011;11055;50.870;4.316;2024-01-15T06:58:00;8.80;;;2.40;;
21786;SDS011;11055;50.870;4.316;2024-01-15T07:00:26;6.38;;;2.20;;
21786;SDS011;11055;50.870;4.316;2024-01-15T07:02:52;4.30;;;2.00;;
21786;SDS011;11055;50.870;4.316;2024-01-15T07:05:19;8.10;;;2.13;;
21786;SDS011;11055;50.870;4.316;2024-01-15T07:07:46;8.98;;;5.13;;
21786;SDS011;11055;50.870;4.316;2024-01-15T07:10:12;5.32;;;2.00;;
21786;SDS011;11055;50.870;4.316;2024-01-15T07:12:38;7.60;;;1.90;;
21786;SDS011;11055;50.870;4.316;2024-01-15T07:15:06;3.30;;;1.80;;
21786;SDS011;11055;50.870;4.316;2024-01-15T07:17:33;8.40;;;1.60;;
21786;SDS011;11055;50.870;4.316;2024-01-15T07:19:59;8.52;;;1.98;;
21786;SDS011;11055;50.870;4.316;2024-01-15T07:22:24;4.07;;;1.70;;
21786;SDS011;11055;50.870;4.316;2024-01-15T07:24:50;3.90;;;1.88;;
21786;SDS011;11055;50.870;4.316;2024-01-15T07:27:16;4.68;;;1.92;;
21786;SDS011;11055;50.870;4.316;2024-01-15T07:29:41;7.20;;;2.42;;
21786;SDS011;11055;50.870;4.316;2024-01-15T07:32:08;6.80;;;2.67;;
21786;SDS011;11055;50.870;4.316;2024-01-15T07:34:34;8.38;;;2.35;;
21786;SDS011;11055;50.870;4.316;2024-01-15T07:36:59;3.17;;;2.30;;
21786;SDS011;11055;50.870;4.316;2024-01-15T07:39:25;5.57;;;2.92;;
21786;SDS011;11055;50.870;4.316;2024-01-15T07:41:51;8.32;;;3.35;;
21786;SDS011;11055;50.870;4.316;2024-01-15T07:44:17;6.07;;;3.25;;
21786;SDS011;11055;50.870;4.316;2024-01-15T07:46:46;9.35;;;3.72;;
21786;SDS011;11055;50.870;4.316;2024-01-15T07:49:12;12.13;;;4.30;;
21786;SDS011;11055;50.870;4.316;2024-01-15T07:51:38;14.57;;;4.13;;
21786;SDS011;11055;50.870;4.316;2024-01-15T07:54:05;8.90;;;4.32;;
21786;SDS011;11055;50.870;4.316;2024-01-15T07:56:32;11.20;;;4.18;;
21786;SDS011;11055;50.870;4.316;2024-01-15T07:58:58;7.90;;;3.88;;
21786;SDS011;11055;50.870;4.316;2024-01-15T08:01:24;6.25;;;3.70;;
21786;SDS011;11055;50.870;4.316;2024-01-15T08:03:50;8.77;;;3.25;;
21786;SDS011;11055;50.870;4.316;2024-01-15T08:06:15;12.95;;;3.72;;
21786;SDS011;11055;50.870;4.316;2024-01-15T08:08:42;10.93;;;3.90;;
21786;SDS011;11055;50.870;4.316;2024-01-15T08:11:07;5.68;;;3.58;;
21786;SDS011;11055;50.870;4.316;2024-01-15T08:13:33;5.38;;;3.22;;
21786;SDS011;11055;50.870;4.316;2024-01-15T08:15:59;7.25;;;3.58;;
21786;SDS011;11055;50.870;4.316;2024-01-15T08:18:24;12.65;;;5.82;;
21786;SDS011;11055;50.870;4.316;2024-01-15T08:20:50;5.50;;;3.80;;
21786;SDS011;11055;50.870;4.316;2024-01-15T08:23:17;8.38;;;3.85;;
21786;SDS011;11055;50.870;4.316;2024-01-15T08:25:42;7.22;;;3.30;;
21786;SDS011;11055;50.870;4.316;2024-01-15T08:28:08;6.22;;;2.92;;
21786;SDS011;11055;50.870;4.316;2024-01-15T08:30:34;6.35;;;2.60;;
21786;SDS011;11055;50.870;4.316;2024-01-15T08:32:59;15.90;;;3.70;;
21786;SDS011;11055;50.870;4.316;2024-01-15T08:35:25;7.93;;;2.90;;
21786;SDS011;11055;50.870;4.316;2024-01-15T08:37:51;11.15;;;3.20;;
21786;SDS011;11055;50.870;4.316;2024-01-15T08:40:17;6.82;;;2.50;;
21786;SDS011;11055;50.870;4.316;2024-01-15T08:42:43;11.20;;;2.90;;
21786;SDS011;11055;50.870;4.316;2024-01-15T08:45:10;8.07;;;2.47;;
21786;SDS011;11055;50.870;4.316;2024-01-15T08:47:36;8.55;;;2.35;;
21786;SDS011;11055;50.870;4.316;2024-01-15T08:50:02;7.47;;;2.75;;
21786;SDS011;11055;50.870;4.316;2024-01-15T08:52:29;12.18;;;2.30;;
21786;SDS011;11055;50.870;4.316;2024-01-15T08:54:56;10.75;;;2.55;;
21786;SDS011;11055;50.870;4.316;2024-01-15T08:57:21;9.65;;;2.53;;
21786;SDS011;11055;50.870;4.316;2024-01-15T08:59:47;8.63;;;2.00;;
21786;SDS011;11055;50.870;4.316;2024-01-15T09:02:13;8.70;;;2.53;;
21786;SDS011;11055;50.870;4.316;2024-01-15T09:04:38;7.15;;;2.28;;
21786;SDS011;11055;50.870;4.316;2024-01-15T09:07:04;9.38;;;2.05;;
21786;SDS011;11055;50.870;4.316;2024-01-15T09:09:30;11.95;;;2.40;;
21786;SDS011;11055;50.870;4.316;2024-01-15T09:11:56;7.38;;;1.80;;
21786;SDS011;11055;50.870;4.316;2024-01-15T09:14:21;4.70;;;1.80;;
21786;SDS011;11055;50.870;4.316;2024-01-15T09:16:49;6.15;;;2.42;;
21786;SDS011;11055;50.870;4.316;2024-01-15T09:19:16;6.35;;;1.80;;
21786;SDS011;11055;50.870;4.316;2024-01-15T09:21:41;5.75;;;1.92;;
21786;SDS011;11055;50.870;4.316;2024-01-15T09:24:07;8.52;;;2.55;;
21786;SDS011;11055;50.870;4.316;2024-01-15T09:26:33;5.45;;;1.52;;
21786;SDS011;11055;50.870;4.316;2024-01-15T09:28:58;6.30;;;1.90;;
21786;SDS011;11055;50.870;4.316;2024-01-15T09:31:24;8.80;;;2.40;;
21786;SDS011;11055;50.870;4.316;2024-01-15T09:33:50;8.80;;;1.92;;
21786;SDS011;11055;50.870;4.316;2024-01-15T09:36:20;5.35;;;1.60;;
21786;SDS011;11055;50.870;4.316;2024-01-15T09:38:47;7.20;;;2.08;;
21786;SDS011;11055;50.870;4.316;2024-01-15T09:41:13;8.10;;;1.80;;
21786;SDS011;11055;50.870;4.316;2024-01-15T09:43:40;9.85;;;2.40;;
21786;SDS011;11055;50.870;4.316;2024-01-15T09:46:06;7.88;;;2.30;;
21786;SDS011;11055;50.870;4.316;2024-01-15T09:48:31;7.35;;;2.33;;
21786;SDS011;11055;50.870;4.316;2024-01-15T09:50:59;7.45;;;2.05;;
21786;SDS011;11055;50.870;4.316;2024-01-15T09:53:27;5.65;;;1.42;;
21786;SDS011;11055;50.870;4.316;2024-01-15T09:55:53;5.40;;;1.75;;
21786;SDS011;11055;50.870;4.316;2024-01-15T09:58:19;6.05;;;1.55;;
21786;SDS011;11055;50.870;4.316;2024-01-15T10:00:46;5.35;;;1.50;;
21786;SDS011;11055;50.870;4.316;2024-01-15T10:03:15;7.00;;;2.05;;
21786;SDS011;11055;50.870;4.316;2024-01-15T10:05:40;7.93;;;2.00;;
21786;SDS011;11055;50.870;4.316;2024-01-15T10:08:07;9.38;;;2.53;;
21786;SDS011;11055;50.870;4.316;2024-01-15T10:10:33;6.22;;;1.98;;
21786;SDS011;11055;50.870;4.316;2024-01-15T10:13:01;6.45;;;1.80;;
21786;SDS011;11055;50.870;4.316;2024-01-15T10:15:29;7.43;;;1.65;;
21786;SDS011;11055;50.870;4.316;2024-01-15T10:17:54;6.65;;;1.75;;
21786;SDS011;11055;50.870;4.316;2024-01-15T10:20:20;9.23;;;1.95;;
21786;SDS011;11055;50.870;4.316;2024-01-15T10:22:50;3.72;;;1.35;;
21786;SDS011;11055;50.870;4.316;2024-01-15T10:25:16;10.52;;;2.03;;
21786;SDS011;11055;50.870;4.316;2024-01-15T10:27:52;5.88;;;1.60;;
21786;SDS011;11055;50.870;4.316;2024-01-15T10:30:28;8.25;;;2.15;;
21786;SDS011;11055;50.870;4.316;2024-01-15T10:32:58;7.68;;;2.03;;
21786;SDS011;11055;50.870;4.316;2024-01-15T10:35:31;5.28;;;1.70;;
21786;SDS011;11055;50.870;4.316;2024-01-15T10:38:01;6.07;;;1.80;;
21786;SDS011;11055;50.870;4.316;2024-01-15T10:40:28;8.02;;;1.90;;
21786;SDS011;11055;50.870;4.316;2024-01-15T10:42:54;4.20;;;1.67;;
21786;SDS011;11055;50.870;4.316;2024-01-15T10:45:20;7.93;;;1.67;;
21786;SDS011;11055;50.870;4.316;2024-01-15T10:47:45;7.97;;;1.40;;
21786;SDS011;11055;50.870;4.316;2024-01-15T10:50:11;8.40;;;1.88;;
21786;SDS011;11055;50.870;4.316;2024-01-15T10:52:38;4.68;;;1.40;;
21786;SDS011;11055;50.870;4.316;2024-01-15T10:55:08;9.50;;;1.90;;
21786;SDS011;11055;50.870;4.316;2024-01-15T10:57:35;6.25;;;1.13;;
21786;SDS011;11055;50.870;4.316;2024-01-15T11:00:02;6.75;;;1.80;;
21786;SDS011;11055;50.870;4.316;2024-01-15T11:02:31;8.85;;;1.88;;
21786;SDS011;11055;50.870;4.316;2024-01-15T11:05:01;6.38;;;1.75;;
21786;SDS011;11055;50.870;4.316;2024-01-15T11:07:27;6.20;;;1.50;;
21786;SDS011;11055;50.870;4.316;2024-01-15T11:09:54;6.05;;;1.67;;
21786;SDS011;11055;50.870;4.316;2024-01-15T11:12:20;8.00;;;1.80;;
21786;SDS011;11055;50.870;4.316;2024-01-15T11:14:49;6.15;;;1.42;;
21786;SDS011;11055;50.870;4.316;2024-01-15T11:17:15;7.43;;;1.35;;
21786;SDS011;11055;50.870;4.316;2024-01-15T11:19:46;4.30;;;1.17;;
21786;SDS011;11055;50.870;4.316;2024-01-15T11:25:17;8.23;;;1.60;;
21786;SDS011;11055;50.870;4.316;2024-01-15T11:27:44;7.28;;;1.33;;
21786;SDS011;11055;50.870;4.316;2024-01-15T11:30:18;4.32;;;1.92;;
21786;SDS011;11055;50.870;4.316;2024-01-15T11:32:45;9.13;;;2.92;;
21786;SDS011;11055;50.870;4.316;2024-01-15T11:35:14;7.05;;;1.50;;
21786;SDS011;11055;50.870;4.316;2024-01-15T11:40:43;6.43;;;1.20;;
21786;SDS011;11055;50.870;4.316;2024-01-15T11:43:10;3.92;;;1.25;;
21786;SDS011;11055;50.870;4.316;2024-01-15T11:45:38;4.40;;;1.17;;
21786;SDS011;11055;50.870;4.316;2024-01-15T11:48:09;5.70;;;0.90;;
21786;SDS011;11055;50.870;4.316;2024-01-15T11:50:39;3.20;;;1.10;;
21786;SDS011;11055;50.870;4.316;2024-01-15T11:53:32;6.90;;;1.13;;
21786;SDS011;11055;50.870;4.316;2024-01-15T11:56:21;7.57;;;1.70;;
21786;SDS011;11055;50.870;4.316;2024-01-15T11:58:48;6.20;;;1.52;;
21786;SDS011;11055;50.870;4.316;2024-01-15T12:01:15;5.45;;;1.20;;
21786;SDS011;11055;50.870;4.316;2024-01-15T12:03:42;14.20;;;1.80;;
21786;SDS011;11055;50.870;4.316;2024-01-15T12:06:09;3.92;;;1.10;;
21786;SDS011;11055;50.870;4.316;2024-01-15T12:08:36;4.63;;;1.45;;
21786;SDS011;11055;50.870;4.316;2024-01-15T12:11:05;8.07;;;1.27;;
21786;SDS011;11055;50.870;4.316;2024-01-15T12:13:35;5.40;;;1.13;;
21786;SDS011;11055;50.870;4.316;2024-01-15T12:16:01;3.38;;;1.10;;
21786;SDS011;11055;50.870;4.316;2024-01-15T12:18:29;4.35;;;1.35;;
21786;SDS011;11055;50.870;4.316;2024-01-15T12:20:54;5.95;;;1.40;;
21786;SDS011;11055;50.870;4.316;2024-01-15T12:23:24;6.28;;;1.38;;
21786;SDS011;11055;50.870;4.316;2024-01-15T12:25:50;8.57;;;1.85;;
21786;SDS011;11055;50.870;4.316;2024-01-15T12:28:16;10.32;;;1.70;;
21786;SDS011;11055;50.870;4.316;2024-01-15T12:30:41;6.20;;;1.50;;
21786;SDS011;11055;50.870;4.316;2024-01-15T12:33:07;6.53;;;1.63;;
21786;SDS011;11055;50.870;4.316;2024-01-15T12:35:33;4.63;;;0.90;;
21786;SDS011;11055;50.870;4.316;2024-01-15T12:38:00;6.72;;;1.40;;
21786;SDS011;11055;50.870;4.316;2024-01-15T12:40:30;6.03;;;1.27;;
21786;SDS011;11055;50.870;4.316;2024-01-15T12:42:57;10.38;;;1.52;;
21786;SDS011;11055;50.870;4.316;2024-01-15T12:45:23;1.60;;;0.85;;
21786;SDS011;11055;50.870;4.316;2024-01-15T12:47:49;7.90;;;0.93;;
21786;SDS011;11055;50.870;4.316;2024-01-15T12:50:16;7.32;;;1.55;;
21786;SDS011;11055;50.870;4.316;2024-01-15T12:52:42;5.10;;;1.20;;
21786;SDS011;11055;50.870;4.316;2024-01-15T12:55:08;8.40;;;1.30;;
21786;SDS011;11055;50.870;4.316;2024-01-15T12:57:34;5.82;;;1.67;;
21786;SDS011;11055;50.870;4.316;2024-01-15T13:00:01;4.65;;;1.23;;
21786;SDS011;11055;50.870;4.316;2024-01-15T13:02:31;5.65;;;1.40;;
21786;SDS011;11055;50.870;4.316;2024-01-15T13:04:58;4.35;;;1.20;;
21786;SDS011;11055;50.870;4.316;2024-01-15T13:07:24;6.82;;;1.52;;
21786;SDS011;11055;50.870;4.316;2024-01-15T13:09:50;5.07;;;1.40;;
21786;SDS011;11055;50.870;4.316;2024-01-15T13:12:18;9.07;;;1.98;;
21786;SDS011;11055;50.870;4.316;2024-01-15T13:14:45;6.68;;;1.30;;
21786;SDS011;11055;50.870;4.316;2024-01-15T13:17:11;4.13;;;1.35;;
21786;SDS011;11055;50.870;4.316;2024-01-15T13:19:37;6.30;;;1.52;;
21786;SDS011;11055;50.870;4.316;2024-01-15T13:22:04;4.30;;;1.50;;
21786;SDS011;11055;50.870;4.316;2024-01-15T13:24:32;9.75;;;2.55;;
21786;SDS011;11055;50.870;4.316;2024-01-15T13:26:57;13.05;;;1.60;;
21786;SDS011;11055;50.870;4.316;2024-01-15T13:29:23;9.25;;;1.77;;
21786;SDS011;11055;50.870;4.316;2024-01-15T13:31:49;7.28;;;1.60;;
21786;SDS011;11055;50.870;4.316;2024-01-15T13:34:14;5.03;;;1.70;;
21786;SDS011;11055;50.870;4.316;2024-01-15T13:36:40;5.88;;;1.90;;
21786;SDS011;11055;50.870;4.316;2024-01-15T13:39:06;9.35;;;1.60;;
21786;SDS011;11055;50.870;4.316;2024-01-15T13:41:35;9.02;;;1.38;;
21786;SDS011;11055;50.870;4.316;2024-01-15T13:44:01;6.70;;;1.75;;
21786;SDS011;11055;50.870;4.316;2024-01-15T13:46:27;13.48;;;3.33;;
21786;SDS011;11055;50.870;4.316;2024-01-15T13:48:54;6.47;;;1.92;;
21786;SDS011;11055;50.870;4.316;2024-01-15T13:51:23;8.10;;;1.60;;
21786;SDS011;11055;50.870;4.316;2024-01-15T13:53:49;7.05;;;1.60;;
21786;SDS011;11055;50.870;4.316;2024-01-15T13:56:15;7.28;;;1.65;;
21786;SDS011;11055;50.870;4.316;2024-01-15T13:58:41;10.57;;;3.38;;
21786;SDS011;11055;50.870;4.316;2024-01-15T14:01:08;8.10;;;2.15;;
21786;SDS011;11055;50.870;4.316;2024-01-15T14:03:34;10.82;;;1.85;;
21786;SDS011;11055;50.870;4.316;2024-01-15T14:06:01;7.22;;;1.95;;
21786;SDS011;11055;50.870;4.316;2024-01-15T14:08:33;8.57;;;1.65;;
21786;SDS011;11055;50.870;4.316;2024-01-15T14:11:05;3.95;;;1.00;;
21786;SDS011;11055;50.870;4.316;2024-01-15T14:13:37;7.72;;;1.77;;
21786;SDS011;11055;50.870;4.316;2024-01-15T14:16:03;5.88;;;1.45;;
21786;SDS011;11055;50.870;4.316;2024-01-15T14:18:29;5.47;;;1.90;;
21786;SDS011;11055;50.870;4.316;2024-01-15T14:20:54;10.13;;;1.88;;
21786;SDS011;11055;50.870;4.316;2024-01-15T14:23:20;7.35;;;1.63;;
21786;SDS011;11055;50.870;4.316;2024-01-15T14:25:46;5.28;;;1.70;;
21786;SDS011;11055;50.870;4.316;2024-01-15T14:28:12;7.07;;;1.60;;
21786;SDS011;11055;50.870;4.316;2024-01-15T14:30:37;7.05;;;1.55;;
21786;SDS011;11055;50.870;4.316;2024-01-15T14:33:03;4.18;;;1.33;;
21786;SDS011;11055;50.870;4.316;2024-01-15T14:35:29;5.70;;;3.15;;
21786;SDS011;11055;50.870;4.316;2024-01-15T14:37:55;8.25;;;3.42;;
21786;SDS011;11055;50.870;4.316;2024-01-15T14:40:23;7.07;;;1.50;;
21786;SDS011;11055;50.870;4.316;2024-01-15T14:42:50;4.82;;;1.80;;
21786;SDS011;11055;50.870;4.316;2024-01-15T14:45:16;4.65;;;1.50;;